Time;durP1;ratioP1;P1;durP2;ratioP2;P2;SDS_P1;SDS_P2;PMS_P1;PMS_P2;Temp;Humidity;BMP_temperature;BMP_pressure;BME280_temperature;BME280_humidity;BME280_pressure;Samples;Min_cycle;Max_cycle;Signal;HPM_P1;HPM_P2
2023/01/04 00:01:17;;;;;;;54.15;33.90;;;25.10;99.90;;;;;;5075650;28;20389;-67
2023/01/04 00:03:44;;;;;;;62.47;32.35;;;25.10;99.90;;;;;;5075548;28;20099;-68
2023/01/04 00:06:14;;;;;;;43.20;29.80;;;25.10;99.90;;;;;;5075290;28;20036;-67
2023/01/04 00:08:40;;;;;;;43.15;29.65;;;25.10;99.90;;;;;;5066886;28;20029;-67
2023/01/04 00:11:12;;;;;;;38.63;29.08;;;25.10;99.90;;;;;;5055690;28;20060;-66
2023/01/04 00:13:38;;;;;;;41.78;30.52;;;25.10;99.90;;;;;;5055487;28;20025;-67
2023/01/04 00:16:08;;;;;;;37.92;30.42;;;25.20;99.90;;;;;;5055238;28;20036;-68
2023/01/04 00:18:36;;;;;;;43.63;29.10;;;25.20;99.90;;;;;;5055142;28;20072;-67
2023/01/04 00:21:25;;;;;;;39.65;31.25;;;25.20;99.90;;;;;;5055227;28;20098;-66
2023/01/04 00:23:53;;;;;;;39.03;27.80;;;25.20;99.90;;;;;;5055016;28;20107;-66
2023/01/04 00:26:23;;;;;;;37.10;26.63;;;25.20;99.90;;;;;;5054898;28;20047;-67
2023/01/04 00:28:54;;;;;;;35.95;24.65;;;25.20;99.90;;;;;;5055173;28;20377;-66
2023/01/04 00:31:21;;;;;;;83.93;57.77;;;25.20;99.90;;;;;;5055013;28;20021;-66
2023/01/04 00:33:48;;;;;;;39.83;30.02;;;25.20;99.90;;;;;;5055029;28;20021;-66
2023/01/04 00:36:15;;;;;;;42.78;26.85;;;25.20;99.90;;;;;;5055153;28;20021;-68
2023/01/04 00:38:41;;;;;;;72.22;50.28;;;25.20;99.90;;;;;;5054748;28;20017;-67
2023/01/04 00:41:10;;;;;;;36.13;26.88;;;25.20;99.90;;;;;;5061368;28;20033;-67
2023/01/04 00:43:36;;;;;;;28.85;21.95;;;25.30;99.90;;;;;;5074828;28;20074;-67
2023/01/04 00:46:04;;;;;;;27.88;20.85;;;25.30;99.90;;;;;;5074491;28;20024;-66
2023/01/04 00:48:30;;;;;;;28.77;20.58;;;25.40;99.90;;;;;;5074104;28;20021;-67
2023/01/04 00:50:58;;;;;;;28.13;19.17;;;25.40;99.90;;;;;;5074205;28;20110;-68
2023/01/04 00:53:25;;;;;;;20.58;17.00;;;25.30;99.90;;;;;;5074733;28;20082;-68
2023/01/04 00:55:51;;;;;;;20.40;15.82;;;25.30;99.90;;;;;;5074655;28;20021;-67
2023/01/04 00:58:18;;;;;;;19.42;14.13;;;25.30;99.90;;;;;;5074472;28;20024;-68
2023/01/04 01:00:44;;;;;;;21.85;14.75;;;25.30;99.90;;;;;;5074265;28;20032;-68
2023/01/04 01:03:11;;;;;;;20.20;15.13;;;25.30;99.90;;;;;;5074453;28;20073;-68
2023/01/04 01:05:37;;;;;;;17.98;13.85;;;25.30;99.90;;;;;;5074748;28;20427;-69
2023/01/04 01:08:23;;;;;;;18.58;14.38;;;25.30;99.90;;;;;;5074211;28;20035;-68
2023/01/04 01:10:50;;;;;;;28.42;20.80;;;25.30;99.90;;;;;;5074169;28;20031;-68
2023/01/04 01:13:17;;;;;;;26.45;18.33;;;25.30;99.90;;;;;;5074093;28;20473;-68
2023/01/04 01:15:43;;;;;;;32.53;21.95;;;25.40;99.90;;;;;;5074189;28;20039;-68
2023/01/04 01:18:10;;;;;;;25.05;16.20;;;25.50;99.90;;;;;;5074129;28;20032;-68
2023/01/04 01:20:46;;;;;;;90.25;62.17;;;25.50;99.90;;;;;;5061533;28;20029;-67
2023/01/04 01:23:14;;;;;;;44.28;27.83;;;25.50;99.90;;;;;;5072656;28;20066;-68
2023/01/04 01:25:41;;;;;;;37.55;25.23;;;25.50;99.90;;;;;;5073771;28;20039;-68
2023/01/04 01:28:08;;;;;;;30.65;22.98;;;25.50;99.90;;;;;;5073792;28;20021;-68
2023/01/04 01:30:40;;;;;;;25.55;15.93;;;25.60;99.90;;;;;;5074099;28;20017;-68
2023/01/04 01:33:07;;;;;;;25.13;15.25;;;25.60;99.90;;;;;;5074055;28;20025;-68
2023/01/04 01:35:35;;;;;;;29.83;15.13;;;25.60;99.90;;;;;;5073684;28;20055;-67
2023/01/04 01:38:02;;;;;;;18.90;12.07;;;25.60;99.90;;;;;;5073694;28;20094;-67
2023/01/04 01:40:28;;;;;;;17.83;11.85;;;25.60;99.90;;;;;;5073964;28;20121;-68
2023/01/04 01:42:55;;;;;;;21.73;12.82;;;25.70;99.90;;;;;;5073512;28;20050;-68
2023/01/04 01:45:26;;;;;;;18.75;11.80;;;25.70;99.90;;;;;;5073467;28;20021;-65
2023/01/04 01:47:58;;;;;;;21.63;13.38;;;25.70;99.90;;;;;;5073506;28;20493;-64
2023/01/04 01:50:30;;;;;;;19.38;12.13;;;25.70;99.90;;;;;;5072610;28;20452;-65
2023/01/04 01:52:59;;;;;;;22.50;10.88;;;25.70;99.90;;;;;;5073503;28;20024;-65
2023/01/04 01:55:28;;;;;;;33.42;22.70;;;25.70;99.90;;;;;;5073383;28;20103;-65
2023/01/04 01:57:55;;;;;;;45.65;29.25;;;25.70;99.90;;;;;;5073335;28;20048;-65
2023/01/04 02:00:21;;;;;;;30.90;20.42;;;25.70;99.90;;;;;;5073230;28;20033;-65
2023/01/04 02:03:12;;;;;;;18.83;14.02;;;25.80;99.90;;;;;;5073262;28;20025;-65
2023/01/04 02:05:39;;;;;;;21.67;15.20;;;25.80;99.90;;;;;;5073309;28;20047;-64
2023/01/04 02:08:08;;;;;;;30.55;22.98;;;25.80;99.90;;;;;;5073227;28;20465;-66
2023/01/04 02:10:34;;;;;;;25.23;16.02;;;25.80;99.90;;;;;;5073313;28;20421;-66
2023/01/04 02:13:07;;;;;;;31.52;19.42;;;25.80;99.90;;;;;;5072589;28;20481;-65
2023/01/04 02:15:55;;;;;;;27.90;14.80;;;26.00;99.90;;;;;;5061589;28;20045;-65
2023/01/04 02:18:31;;;;;;;25.27;13.38;;;26.00;99.90;;;;;;5053467;28;20114;-65
2023/01/04 02:21:05;;;;;;;20.13;13.30;;;26.10;99.90;;;;;;5053162;28;20032;-65
2023/01/04 02:23:35;;;;;;;22.77;13.60;;;26.10;99.90;;;;;;5053156;28;20128;-65
2023/01/04 02:26:12;;;;;;;24.92;13.77;;;26.10;99.90;;;;;;5052798;28;20179;-65
2023/01/04 02:28:49;;;;;;;20.45;11.98;;;26.10;99.90;;;;;;5052995;28;20017;-65
2023/01/04 02:31:22;;;;;;;21.45;14.02;;;26.10;99.90;;;;;;5053011;28;20021;-65
2023/01/04 02:34:02;;;;;;;19.27;14.05;;;26.20;99.90;;;;;;5053166;28;20017;-65
2023/01/04 02:36:36;;;;;;;23.15;14.80;;;26.20;99.90;;;;;;5052912;28;20032;-65
2023/01/04 02:39:19;;;;;;;28.17;15.43;;;26.30;99.90;;;;;;5053155;28;20057;-64
2023/01/04 02:41:55;;;;;;;22.73;14.80;;;26.40;99.90;;;;;;5052804;28;20029;-65
2023/01/04 02:47:16;;;;;;;17.17;12.00;;;26.50;99.90;;;;;;5052961;28;20129;-64
2023/01/04 02:52:29;;;;;;;22.45;12.88;;;26.60;99.90;;;;;;5052879;28;20025;-65
2023/01/04 02:54:57;;;;;;;25.05;13.43;;;26.60;99.90;;;;;;5052780;28;20029;-65
2023/01/04 02:57:32;;;;;;;23.90;13.93;;;26.60;99.90;;;;;;5052550;28;20452;-64
2023/01/04 03:00:01;;;;;;;19.42;12.80;;;26.70;99.90;;;;;;5052669;28;20029;-65
2023/01/04 03:06:24;;;;;;;16.02;12.00;;;26.80;99.90;;;;;;5052715;28;20428;-65
2023/01/04 03:08:51;;;;;;;22.63;13.75;;;26.80;99.90;;;;;;5052861;28;20036;-66
2023/01/04 03:14:01;;;;;;;23.08;14.77;;;26.80;99.90;;;;;;5056013;28;20049;-65
2023/01/04 03:16:29;;;;;;;22.60;15.57;;;26.80;99.90;;;;;;5056365;28;20032;-65
2023/01/04 03:19:03;;;;;;;20.73;15.43;;;26.80;99.90;;;;;;5056394;28;20059;-65
2023/01/04 03:21:32;;;;;;;22.35;13.23;;;26.90;99.90;;;;;;5056457;28;20496;-65
2023/01/04 03:35:40;;;;;;;14.18;9.98;;;26.80;99.90;;;;;;5056030;28;20033;-64
2023/01/04 03:50:11;;;;;;;18.30;11.43;;;27.00;99.90;;;;;;4975031;28;20038;-62
2023/01/04 03:52:40;;;;;;;20.42;12.40;;;27.00;99.90;;;;;;4975225;28;20035;-64
2023/01/04 03:55:09;;;;;;;19.02;13.75;;;27.00;99.90;;;;;;4975077;28;20092;-64
2023/01/04 03:57:36;;;;;;;22.27;14.05;;;27.10;99.90;;;;;;4974756;28;20063;-65
2023/01/04 04:00:17;;;;;;;22.40;14.80;;;27.10;99.90;;;;;;4974935;28;20054;-65
2023/01/04 04:02:46;;;;;;;28.80;15.00;;;27.20;99.90;;;;;;4974770;28;20038;-66
2023/01/04 04:10:51;;;;;;;18.85;12.52;;;27.30;99.90;;;;;;4935142;29;20075;-65
2023/01/04 04:13:18;;;;;;;18.00;12.55;;;27.30;99.90;;;;;;4934928;29;20046;-66
2023/01/04 04:15:44;;;;;;;15.82;11.65;;;27.30;99.90;;;;;;4934580;29;20032;-66
2023/01/04 04:18:11;;;;;;;18.60;11.30;;;27.40;99.90;;;;;;4934787;29;20043;-65
2023/01/04 04:20:37;;;;;;;14.70;10.80;;;27.50;99.90;;;;;;4932031;29;20139;-64
2023/01/04 04:23:04;;;;;;;18.95;14.00;;;27.50;99.90;;;;;;4925052;29;20034;-66
2023/01/04 04:25:30;;;;;;;18.50;12.60;;;27.60;99.90;;;;;;4947074;29;20412;-65
2023/01/04 04:27:57;;;;;;;16.73;12.45;;;27.70;99.90;;;;;;4997673;28;20109;-64
2023/01/04 04:30:23;;;;;;;12.27;10.18;;;27.70;99.90;;;;;;5002515;28;20026;-66
2023/01/04 04:32:50;;;;;;;13.15;9.45;;;27.70;99.90;;;;;;5001258;28;20044;-65
2023/01/04 04:35:16;;;;;;;16.63;9.95;;;27.80;99.90;;;;;;5003094;28;20124;-63
2023/01/04 04:37:43;;;;;;;18.15;11.65;;;27.90;99.90;;;;;;5002396;28;20097;-65
2023/01/04 04:41:37;;;;;;;11.48;7.07;;;27.90;99.90;;;;;;5001544;28;20029;-66
2023/01/04 04:42:56;;;;;;;16.50;8.77;;;28.00;99.90;;;;;;5001296;28;20542;-66
2023/01/04 04:45:23;;;;;;;11.60;7.63;;;28.00;99.90;;;;;;5036359;28;20041;-65
2023/01/04 04:47:49;;;;;;;12.35;7.32;;;28.00;99.90;;;;;;5062176;28;20099;-66
2023/01/04 04:50:16;;;;;;;13.40;7.82;;;28.00;99.90;;;;;;5064547;28;20020;-66
2023/01/04 04:52:42;;;;;;;10.20;7.47;;;28.00;99.90;;;;;;5063295;28;20017;-65
2023/01/04 04:55:09;;;;;;;11.18;6.80;;;28.00;99.90;;;;;;5060631;28;20021;-66
2023/01/04 04:57:35;;;;;;;11.15;6.20;;;28.00;99.90;;;;;;5055879;28;20382;-66
2023/01/04 05:00:02;;;;;;;9.30;6.13;;;28.00;99.90;;;;;;5057911;28;20071;-66
2023/01/04 05:02:29;;;;;;;9.57;6.22;;;28.00;99.90;;;;;;5060721;28;20023;-67
2023/01/04 05:04:55;;;;;;;17.63;6.70;;;28.00;99.90;;;;;;5061324;28;20462;-66
2023/01/04 05:07:22;;;;;;;7.70;6.10;;;28.10;99.90;;;;;;5062927;28;20045;-65
2023/01/04 05:09:48;;;;;;;16.83;7.43;;;28.10;99.90;;;;;;5061262;28;20048;-67
2023/01/04 05:15:01;;;;;;;11.20;7.45;;;28.10;99.90;;;;;;5071591;28;20162;-65
2023/01/04 05:17:28;;;;;;;15.05;7.65;;;28.10;99.90;;;;;;5066400;28;20036;-66
2023/01/04 05:19:54;;;;;;;12.27;7.38;;;28.20;99.90;;;;;;5057980;28;20466;-65
2023/01/04 05:22:21;;;;;;;15.48;6.55;;;28.20;99.90;;;;;;5062055;28;20033;-66
2023/01/04 05:24:47;;;;;;;10.68;7.25;;;28.20;99.90;;;;;;5062180;28;20095;-65
2023/01/04 05:27:14;;;;;;;16.10;7.90;;;28.20;99.90;;;;;;5063561;28;20043;-64
2023/01/04 05:32:27;;;;;;;12.27;7.15;;;28.30;99.90;;;;;;5055653;28;20048;-65
2023/01/04 05:34:53;;;;;;;23.52;9.00;;;28.30;99.90;;;;;;5057410;28;20047;-65
2023/01/04 05:37:20;;;;;;;12.35;7.60;;;28.30;99.90;;;;;;5054732;28;20581;-64
2023/01/04 05:39:46;;;;;;;14.70;8.02;;;28.40;99.90;;;;;;5054412;28;20479;-64
2023/01/04 05:44:59;;;;;;;15.55;7.85;;;28.40;99.90;;;;;;5054578;28;20021;-64
2023/01/04 05:47:27;;;;;;;10.98;7.40;;;28.50;99.90;;;;;;5054465;28;20359;-63
2023/01/04 05:49:54;;;;;;;23.15;15.30;;;28.40;99.90;;;;;;5055389;28;20537;-65
2023/01/04 05:52:21;;;;;;;15.13;9.10;;;28.50;99.90;;;;;;5055010;28;20512;-64
2023/01/04 05:54:47;;;;;;;10.68;7.68;;;28.50;99.90;;;;;;5055969;28;20443;-66
2023/01/04 05:57:15;;;;;;;11.30;6.85;;;28.50;99.90;;;;;;5053731;28;20991;-66
2023/01/04 05:59:41;;;;;;;11.10;7.30;;;28.50;99.90;;;;;;5052760;28;20051;-65
2023/01/04 06:02:15;;;;;;;12.63;7.88;;;28.60;99.90;;;;;;5051758;28;20036;-64
2023/01/04 06:04:41;;;;;;;10.07;7.18;;;28.50;99.90;;;;;;5068327;28;20458;-66
2023/01/04 06:07:08;;;;;;;10.02;7.38;;;28.60;99.90;;;;;;5068909;28;20039;-65
2023/01/04 06:09:34;;;;;;;11.20;6.30;;;28.60;99.90;;;;;;5067641;28;20030;-65
2023/01/04 06:12:01;;;;;;;10.93;7.18;;;28.60;99.90;;;;;;5066440;28;20009;-65
2023/01/04 06:14:27;;;;;;;13.32;7.05;;;28.70;99.90;;;;;;5065188;28;20013;-66
2023/01/04 06:16:54;;;;;;;10.52;6.65;;;28.70;99.90;;;;;;5064908;28;20099;-65
2023/01/04 06:19:20;;;;;;;9.98;7.40;;;28.60;99.90;;;;;;5061791;28;20047;-65
2023/01/04 06:21:47;;;;;;;9.90;7.53;;;28.60;99.90;;;;;;5059072;28;20017;-65
2023/01/04 06:24:13;;;;;;;13.45;8.80;;;28.70;99.90;;;;;;5059687;28;20117;-65
2023/01/04 06:26:40;;;;;;;16.80;8.40;;;28.70;99.90;;;;;;5061786;28;20083;-65
2023/01/04 06:29:07;;;;;;;13.98;6.95;;;28.70;99.90;;;;;;5061859;28;20091;-66
2023/01/04 06:31:33;;;;;;;9.48;7.25;;;28.70;99.90;;;;;;5062366;28;20032;-66
2023/01/04 06:34:01;;;;;;;11.57;7.55;;;28.80;99.90;;;;;;5062155;28;20021;-65
2023/01/04 06:36:27;;;;;;;11.82;8.10;;;28.80;99.90;;;;;;5062788;28;20408;-65
2023/01/04 06:38:56;;;;;;;13.55;7.47;;;28.80;99.90;;;;;;5061614;28;20077;-66
2023/01/04 06:41:23;;;;;;;16.00;8.60;;;28.90;99.90;;;;;;5060889;28;20516;-67
2023/01/04 06:43:50;;;;;;;11.27;7.38;;;28.90;99.90;;;;;;5060593;28;20115;-66
2023/01/04 06:46:16;;;;;;;15.43;7.63;;;28.80;99.90;;;;;;5060494;28;20049;-67
2023/01/04 06:48:43;;;;;;;13.93;8.05;;;28.80;99.90;;;;;;5062532;28;20024;-66
2023/01/04 06:51:09;;;;;;;11.48;6.97;;;28.80;99.90;;;;;;5063233;28;20029;-68
2023/01/04 06:53:36;;;;;;;10.20;7.45;;;28.80;99.90;;;;;;5063478;28;20350;-67
2023/01/04 06:56:03;;;;;;;12.43;8.30;;;28.80;99.90;;;;;;5065449;28;20513;-68
2023/01/04 06:58:29;;;;;;;12.10;7.68;;;28.80;99.90;;;;;;5066549;28;20033;-65
2023/01/04 07:00:56;;;;;;;15.82;8.50;;;28.80;99.90;;;;;;5067485;28;20159;-68
2023/01/04 07:03:22;;;;;;;14.40;8.13;;;28.80;99.90;;;;;;5066149;28;20059;-67
2023/01/04 07:05:49;;;;;;;10.43;7.75;;;28.80;99.90;;;;;;5059013;28;20013;-65
2023/01/04 07:08:16;;;;;;;14.23;8.23;;;28.80;99.90;;;;;;5058566;28;20096;-65
2023/01/04 07:10:42;;;;;;;16.10;8.30;;;28.80;99.90;;;;;;5058622;28;20052;-64
2023/01/04 07:13:09;;;;;;;13.45;8.88;;;28.70;99.90;;;;;;5058906;28;20017;-63
2023/01/04 07:15:36;;;;;;;11.00;8.05;;;28.80;99.90;;;;;;5065948;28;20123;-65
2023/01/04 07:18:02;;;;;;;14.73;10.23;;;28.80;99.90;;;;;;5076572;28;20031;-65
2023/01/04 07:20:29;;;;;;;16.17;9.48;;;28.80;99.90;;;;;;5076367;28;20060;-64
2023/01/04 07:22:55;;;;;;;15.10;9.57;;;28.80;99.90;;;;;;5076099;28;20056;-65
2023/01/04 07:25:22;;;;;;;12.93;9.70;;;28.80;99.90;;;;;;5072040;28;20044;-64
2023/01/04 07:27:58;;;;;;;10.63;8.48;;;28.80;99.90;;;;;;5064275;28;20362;-64
2023/01/04 07:30:24;;;;;;;14.27;8.90;;;28.80;99.90;;;;;;5063821;28;20021;-63
2023/01/04 07:32:52;;;;;;;15.10;8.60;;;28.80;99.90;;;;;;5065175;28;20074;-63
2023/01/04 07:35:19;;;;;;;15.32;11.15;;;28.90;99.90;;;;;;5065467;28;20231;-65
2023/01/04 07:37:46;;;;;;;16.83;10.18;;;28.90;99.90;;;;;;5063998;28;20020;-64
2023/01/04 07:40:13;;;;;;;16.00;10.65;;;28.90;99.90;;;;;;5064780;28;20099;-65
2023/01/04 07:42:39;;;;;;;28.88;21.95;;;28.90;99.90;;;;;;5065554;28;20393;-64
2023/01/04 07:45:07;;;;;;;73.82;50.60;;;28.90;99.90;;;;;;5063759;28;20032;-65
2023/01/04 07:47:33;;;;;;;52.65;40.58;;;28.90;99.90;;;;;;5064506;28;20037;-65
2023/01/04 07:50:00;;;;;;;47.38;41.45;;;28.90;99.90;;;;;;5064059;28;20052;-64
2023/01/04 07:52:27;;;;;;;30.95;22.45;;;28.90;99.90;;;;;;5063765;28;20017;-65
2023/01/04 07:54:53;;;;;;;16.65;11.73;;;28.90;99.90;;;;;;5065429;28;20524;-64
2023/01/04 07:57:20;;;;;;;14.60;10.30;;;28.90;99.90;;;;;;5064263;28;20064;-64
2023/01/04 07:59:46;;;;;;;20.80;13.48;;;29.00;99.90;;;;;;5063397;28;20042;-64
2023/01/04 08:02:13;;;;;;;19.30;12.75;;;28.90;99.90;;;;;;5084046;23;20040;-65
2023/01/04 08:04:39;;;;;;;18.90;13.00;;;29.00;99.90;;;;;;4985981;28;20066;-64
2023/01/04 08:07:06;;;;;;;22.98;16.25;;;28.90;99.90;;;;;;4977198;28;20027;-64
2023/01/04 08:09:32;;;;;;;17.95;12.35;;;29.00;99.90;;;;;;4977987;28;20022;-65
2023/01/04 08:11:59;;;;;;;20.52;13.88;;;29.00;99.90;;;;;;4977924;28;20405;-65
2023/01/04 08:14:26;;;;;;;11.95;8.98;;;29.00;99.90;;;;;;4977066;28;20022;-64
2023/01/04 08:16:52;;;;;;;15.50;9.23;;;28.90;99.90;;;;;;4977482;28;20034;-65
2023/01/04 08:19:20;;;;;;;15.40;11.13;;;28.90;99.90;;;;;;4977521;28;20105;-64
2023/01/04 08:21:47;;;;;;;14.93;8.35;;;28.90;99.90;;;;;;4977224;28;20038;-63
2023/01/04 08:24:16;;;;;;;17.27;9.85;;;29.00;99.90;;;;;;4977229;28;20097;-65
2023/01/04 08:26:43;;;;;;;16.08;8.38;;;28.90;99.90;;;;;;4976956;28;20037;-63
2023/01/04 08:29:10;;;;;;;15.82;8.40;;;29.00;99.90;;;;;;4977638;28;20038;-64
2023/01/04 08:31:38;;;;;;;15.02;8.75;;;29.00;99.90;;;;;;4994292;28;20058;-64
2023/01/04 08:34:07;;;;;;;14.13;8.90;;;29.00;99.90;;;;;;4977621;28;20384;-62
2023/01/04 08:36:42;;;;;;;14.45;8.77;;;28.90;99.90;;;;;;4977337;28;20089;-63
2023/01/04 08:39:09;;;;;;;11.55;9.15;;;28.90;99.90;;;;;;4986911;28;20053;-64
2023/01/04 08:41:49;;;;;;;17.50;11.40;;;28.90;99.90;;;;;;4996905;28;20026;-63
2023/01/04 08:44:20;;;;;;;22.03;13.63;;;29.00;99.90;;;;;;4996033;28;20447;-64
2023/01/04 08:46:47;;;;;;;21.67;12.63;;;28.90;99.90;;;;;;4995805;28;20500;-64
2023/01/04 08:49:13;;;;;;;29.55;21.85;;;28.90;99.90;;;;;;4995682;28;20030;-65
2023/01/04 08:51:40;;;;;;;36.83;21.30;;;29.00;99.90;;;;;;4995479;28;20026;-65
2023/01/04 08:54:07;;;;;;;39.65;27.23;;;29.00;99.90;;;;;;4986736;28;20026;-65
2023/01/04 08:56:33;;;;;;;22.25;15.70;;;28.90;99.90;;;;;;4975775;28;20110;-64
2023/01/04 08:59:00;;;;;;;29.02;19.38;;;28.90;99.90;;;;;;4978774;28;20023;-64
2023/01/04 09:01:27;;;;;;;21.70;12.50;;;28.90;99.90;;;;;;4984721;28;20025;-64
2023/01/04 09:03:55;;;;;;;14.95;10.60;;;28.90;99.90;;;;;;4975945;28;20530;-65
2023/01/04 09:06:21;;;;;;;17.40;10.15;;;28.80;99.90;;;;;;4975304;28;20034;-64
2023/01/04 09:08:49;;;;;;;16.92;9.88;;;28.90;99.90;;;;;;4975724;28;20098;-64
2023/01/04 09:11:18;;;;;;;18.83;11.80;;;28.90;99.90;;;;;;4974472;28;20031;-64
2023/01/04 09:13:46;;;;;;;19.75;11.18;;;28.90;99.90;;;;;;4974496;28;20029;-64
2023/01/04 09:16:15;;;;;;;16.02;10.90;;;28.90;99.90;;;;;;4975312;28;20031;-66
2023/01/04 09:18:42;;;;;;;15.73;10.32;;;28.80;99.90;;;;;;4975078;28;20526;-64
2023/01/04 09:21:14;;;;;;;19.20;9.60;;;28.80;99.90;;;;;;4979586;28;20468;-63
2023/01/04 09:23:42;;;;;;;22.85;12.27;;;28.80;99.90;;;;;;4982515;28;20037;-63
2023/01/04 09:26:12;;;;;;;43.13;26.58;;;28.80;99.90;;;;;;4983296;28;20396;-65
2023/01/04 09:28:39;;;;;;;128.07;68.13;;;28.80;99.90;;;;;;4985157;28;20060;-64
2023/01/04 09:31:13;;;;;;;61.25;33.20;;;28.80;99.90;;;;;;4986967;28;20065;-65
2023/01/04 09:33:40;;;;;;;295.25;171.52;;;28.80;99.90;;;;;;4982661;28;20111;-65
2023/01/04 09:36:08;;;;;;;39.00;21.92;;;28.80;99.90;;;;;;4983651;28;20030;-64
2023/01/04 09:38:35;;;;;;;93.93;51.63;;;28.80;99.90;;;;;;4984328;28;20036;-64
2023/01/04 09:41:10;;;;;;;22.30;15.38;;;28.70;99.90;;;;;;4982878;28;20511;-64
2023/01/04 09:44:01;;;;;;;46.50;19.40;;;28.70;99.90;;;;;;4982344;28;20027;-64
2023/01/04 09:46:30;;;;;;;61.65;28.35;;;28.70;99.90;;;;;;4979517;28;20030;-64
2023/01/04 09:49:20;;;;;;;40.92;22.65;;;28.70;99.90;;;;;;4981931;28;20041;-64
2023/01/04 09:52:08;;;;;;;53.88;31.65;;;28.60;99.90;;;;;;4980990;28;20065;-64
2023/01/04 09:54:52;;;;;;;25.20;15.88;;;28.60;99.90;;;;;;4922372;29;20076;-65
2023/01/04 09:57:25;;;;;;;36.40;19.92;;;28.50;99.90;;;;;;4921712;29;20072;-63
2023/01/04 10:00:12;;;;;;;47.60;28.92;;;28.50;99.90;;;;;;4916858;29;20032;-64
2023/01/04 10:02:45;;;;;;;53.45;29.67;;;28.60;99.90;;;;;;4929199;29;20056;-63
2023/01/04 10:05:25;;;;;;;93.45;55.80;;;28.60;99.90;;;;;;4923686;29;20042;-63
2023/01/04 10:07:52;;;;;;;65.50;43.78;;;28.60;99.90;;;;;;4924335;29;20032;-63
2023/01/04 10:10:28;;;;;;;67.72;41.03;;;28.60;99.90;;;;;;4927782;29;20533;-65
2023/01/04 10:13:07;;;;;;;213.65;132.10;;;28.70;99.90;;;;;;4923017;29;20040;-68
2023/01/04 10:16:08;;;;;;;151.35;102.90;;;28.70;99.90;;;;;;4923089;29;20035;-69
2023/01/04 10:18:51;;;;;;;284.83;197.35;;;28.70;99.90;;;;;;4921471;29;20027;-68
2023/01/04 10:21:19;;;;;;;108.53;71.03;;;28.70;99.90;;;;;;4922553;29;20032;-69
2023/01/04 10:23:46;;;;;;;108.00;70.40;;;28.70;99.90;;;;;;4929845;29;20032;-69
2023/01/04 10:26:17;;;;;;;108.95;71.57;;;28.70;99.90;;;;;;4932568;29;20127;-68
2023/01/04 10:28:51;;;;;;;98.35;65.68;;;28.70;99.90;;;;;;4932755;29;20478;-68
2023/01/04 10:31:36;;;;;;;369.90;199.50;;;28.60;99.90;;;;;;4951988;28;20030;-69
2023/01/04 10:34:25;;;;;;;125.90;68.57;;;28.60;99.90;;;;;;4986542;28;20034;-68
2023/01/04 10:36:59;;;;;;;51.88;31.33;;;28.50;99.90;;;;;;4982534;28;20476;-68
2023/01/04 10:39:31;;;;;;;63.55;34.45;;;28.50;99.90;;;;;;4981978;28;20069;-67
2023/01/04 10:42:04;;;;;;;231.13;130.07;;;28.50;99.90;;;;;;4982881;28;20061;-68
2023/01/04 10:44:41;;;;;;;283.30;147.30;;;28.50;99.90;;;;;;4985072;28;20022;-68
2023/01/04 10:47:15;;;;;;;176.35;82.78;;;28.60;99.90;;;;;;4993564;28;20109;-70
2023/01/04 10:49:48;;;;;;;106.05;58.30;;;28.60;99.90;;;;;;4979937;28;20049;-69
2023/01/04 10:52:25;;;;;;;54.75;32.35;;;28.60;99.90;;;;;;4975026;28;20019;-67
2023/01/04 10:55:10;;;;;;;58.95;37.95;;;28.60;99.90;;;;;;4985502;28;20026;-69
2023/01/04 10:57:42;;;;;;;86.22;47.90;;;28.50;99.90;;;;;;4993269;28;20026;-69
2023/01/04 11:00:38;;;;;;;129.13;73.63;;;28.50;99.90;;;;;;4990226;28;20027;-67
2023/01/04 11:03:25;;;;;;;108.13;64.68;;;28.50;99.90;;;;;;4981918;28;20055;-67
2023/01/04 11:06:10;;;;;;;104.90;65.07;;;28.50;99.90;;;;;;4986335;28;20061;-67
2023/01/04 11:08:45;;;;;;;111.50;66.03;;;28.50;99.90;;;;;;4983731;28;20026;-68
2023/01/04 11:11:44;;;;;;;159.07;111.43;;;28.50;99.90;;;;;;4982144;28;20377;-67
2023/01/04 11:14:12;;;;;;;200.77;122.22;;;28.50;99.90;;;;;;4982109;28;20472;-64
2023/01/04 11:16:42;;;;;;;100.63;60.28;;;28.50;99.90;;;;;;4982130;28;20038;-68
2023/01/04 11:19:09;;;;;;;114.45;71.65;;;28.50;99.90;;;;;;4981776;28;20384;-67
2023/01/04 11:21:44;;;;;;;93.82;51.78;;;28.50;99.90;;;;;;4984910;28;20030;-69
2023/01/04 11:24:12;;;;;;;87.32;47.25;;;28.50;99.90;;;;;;4985764;28;20022;-71
2023/01/04 11:26:42;;;;;;;97.82;56.83;;;28.50;99.90;;;;;;4982785;28;20023;-66
2023/01/04 11:29:21;;;;;;;105.28;58.58;;;28.40;99.90;;;;;;4983254;28;20022;-69
2023/01/04 11:31:50;;;;;;;157.15;108.55;;;28.40;99.90;;;;;;4983386;28;20187;-69
2023/01/04 11:34:16;;;;;;;249.40;173.85;;;28.40;99.90;;;;;;4975763;28;20081;-67
2023/01/04 11:36:45;;;;;;;151.00;106.50;;;28.30;99.90;;;;;;4977375;28;20066;-69
2023/01/04 11:39:23;;;;;;;114.45;72.55;;;28.40;99.90;;;;;;4980021;28;20379;-69
2023/01/04 11:42:03;;;;;;;159.57;107.72;;;28.30;99.90;;;;;;4985594;28;20026;-67
2023/01/04 11:44:32;;;;;;;94.35;56.45;;;28.30;99.90;;;;;;4985659;28;20022;-69
2023/01/04 11:47:19;;;;;;;67.53;40.67;;;28.30;99.90;;;;;;4986304;28;20025;-69
2023/01/04 11:49:47;;;;;;;73.85;40.88;;;28.30;99.90;;;;;;4986297;28;20033;-70
2023/01/04 11:52:34;;;;;;;59.88;37.30;;;28.30;99.90;;;;;;4985791;28;20416;-70
2023/01/04 11:55:23;;;;;;;68.38;37.47;;;28.20;99.90;;;;;;4987608;28;20440;-69
2023/01/04 11:58:11;;;;;;;63.03;38.30;;;28.20;99.90;;;;;;4988947;28;20021;-69
2023/01/04 12:00:48;;;;;;;70.85;40.80;;;28.20;99.90;;;;;;4945057;29;20039;-69
2023/01/04 12:03:20;;;;;;;71.82;45.58;;;28.20;99.90;;;;;;4943599;29;20579;-70
2023/01/04 12:05:46;;;;;;;;;;;28.10;99.90;;;;;;4942661;29;20374;-68
2023/01/04 12:08:34;;;;;;;98.22;55.70;;;28.10;99.90;;;;;;4954055;29;19915;-69
2023/01/04 12:11:03;;;;;;;101.28;61.08;;;28.10;99.90;;;;;;4954379;29;20032;-68
2023/01/04 12:13:32;;;;;;;110.45;59.28;;;28.10;99.90;;;;;;4951881;29;20132;-68
2023/01/04 12:16:27;;;;;;;97.93;55.45;;;28.00;99.90;;;;;;4944513;29;20477;-68
2023/01/04 12:18:54;;;;;;;110.72;62.42;;;28.00;99.90;;;;;;4877860;29;20037;-69
2023/01/04 12:21:25;;;;;;;120.72;63.78;;;28.00;99.90;;;;;;4877952;29;20056;-67
2023/01/04 12:23:53;;;;;;;115.53;64.40;;;28.00;99.90;;;;;;4877671;29;20503;-69
2023/01/04 12:26:22;;;;;;;117.80;69.85;;;28.00;99.90;;;;;;4877790;29;20108;-71
2023/01/04 12:29:10;;;;;;;143.10;83.05;;;28.10;99.90;;;;;;4877799;29;20025;-70
2023/01/04 12:31:36;;;;;;;153.70;96.07;;;28.00;99.90;;;;;;4888576;29;20601;-70
2023/01/04 12:34:13;;;;;;;139.35;75.25;;;28.00;99.90;;;;;;4897940;29;20115;-69
2023/01/04 12:36:39;;;;;;;110.80;64.40;;;28.00;99.90;;;;;;4897694;29;20036;-69
2023/01/04 12:39:15;;;;;;;124.68;74.88;;;27.90;99.90;;;;;;4896335;29;20051;-70
2023/01/04 12:41:59;;;;;;;165.45;107.85;;;27.90;99.90;;;;;;4894194;29;20033;-69
2023/01/04 12:44:39;;;;;;;128.27;73.88;;;28.00;99.90;;;;;;4894724;29;20064;-69
2023/01/04 12:50:03;;;;;;;166.85;109.38;;;28.00;99.90;;;;;;4955663;28;20042;-69
2023/01/04 12:52:30;;;;;;;130.45;81.07;;;28.00;99.90;;;;;;4983448;28;20030;-64
2023/01/04 12:54:59;;;;;;;120.95;72.20;;;27.90;99.90;;;;;;4985213;28;20045;-67
2023/01/04 12:57:27;;;;;;;109.68;64.93;;;27.90;99.90;;;;;;4984318;28;20027;-66
2023/01/04 13:00:00;;;;;;;107.45;63.28;;;27.90;99.90;;;;;;4984041;28;20031;-66
2023/01/04 13:02:30;;;;;;;106.93;63.35;;;27.80;99.90;;;;;;4984621;28;20093;-65
2023/01/04 13:05:00;;;;;;;114.65;63.22;;;27.80;99.90;;;;;;4985757;28;20554;-66
2023/01/04 13:07:38;;;;;;;106.88;62.58;;;27.80;99.90;;;;;;4985039;28;20118;-66
2023/01/04 13:10:20;;;;;;;97.50;55.97;;;27.80;99.90;;;;;;4984699;28;20037;-68
2023/01/04 13:13:13;;;;;;;102.38;58.42;;;27.80;99.90;;;;;;4987886;28;20542;-72
2023/01/04 13:15:48;;;;;;;86.40;52.95;;;27.70;99.90;;;;;;4983940;28;20109;-69
2023/01/04 13:18:34;;;;;;;74.75;48.88;;;27.70;99.90;;;;;;4983675;28;20023;-69
2023/01/04 13:21:22;;;;;;;81.30;52.03;;;27.70;99.90;;;;;;4983741;28;20428;-69
2023/01/04 13:23:53;;;;;;;68.40;41.33;;;27.80;99.90;;;;;;4984798;28;20041;-68
2023/01/04 13:26:44;;;;;;;72.57;45.17;;;27.70;99.90;;;;;;5023079;23;20057;-69
2023/01/04 13:29:21;;;;;;;82.35;47.60;;;27.80;99.90;;;;;;4982859;28;20046;-70
2023/01/04 13:31:50;;;;;;;74.03;45.13;;;27.70;99.90;;;;;;4977319;28;20527;-68
2023/01/04 13:34:34;;;;;;;63.75;41.65;;;27.70;99.90;;;;;;4983070;28;20403;-67
2023/01/04 13:37:10;;;;;;;69.78;39.92;;;27.70;99.90;;;;;;4973853;28;20505;-69
2023/01/04 13:40:16;;;;;;;60.80;37.22;;;27.70;99.90;;;;;;4993082;28;20479;-68